createdAt,value
2022-08-27T00:00:00.084Z,99034.66
2022-08-27T00:02:30.253Z,99038.00
2022-08-27T00:04:59.056Z,99034.50
2022-08-27T00:07:28.112Z,99041.72
2022-08-27T00:09:57.229Z,99048.06
2022-08-27T00:12:26.006Z,99043.13
2022-08-27T00:14:54.812Z,99036.25
2022-08-27T00:17:23.698Z,99040.69
2022-08-27T00:19:53.937Z,99040.63
2022-08-27T00:22:23.243Z,99050.94
2022-08-27T00:24:51.967Z,99053.53
2022-08-27T00:27:20.874Z,99063.00
2022-08-27T00:29:49.735Z,99056.22
2022-08-27T00:32:18.458Z,99059.81
2022-08-27T00:34:47.373Z,99053.94
2022-08-27T00:37:17.567Z,99065.06
2022-08-27T00:39:46.155Z,99061.00
2022-08-27T00:42:14.960Z,99050.69
2022-08-27T00:44:44.340Z,99059.28
2022-08-27T00:47:17.064Z,99054.03
2022-08-27T00:49:50.709Z,99052.34
2022-08-27T00:52:26.030Z,99063.84
2022-08-27T00:55:00.629Z,99063.84
2022-08-27T00:57:29.828Z,99065.75
2022-08-27T00:59:58.568Z,99064.00
2022-08-27T01:02:30.994Z,99071.94
2022-08-27T01:05:02.092Z,99072.03
2022-08-27T01:07:35.174Z,99074.53
2022-08-27T01:10:06.360Z,99072.88
2022-08-27T01:12:36.456Z,99076.31
2022-08-27T01:15:10.989Z,99074.63
2022-08-27T01:17:43.275Z,99071.19
2022-08-27T01:20:17.169Z,99073.72
2022-08-27T01:22:56.579Z,99067.00
2022-08-27T01:25:28.297Z,99065.50
2022-08-27T01:28:00.856Z,99064.25
2022-08-27T01:30:30.170Z,99067.00
2022-08-27T01:32:59.140Z,99061.81
2022-08-27T01:35:28.052Z,99063.47
2022-08-27T01:37:57.321Z,99066.00
2022-08-27T01:40:27.647Z,99065.75
2022-08-27T01:42:58.367Z,99065.59
2022-08-27T01:45:29.889Z,99064.84
2022-08-27T01:47:59.845Z,99065.59
2022-08-27T01:50:33.495Z,99064.50
2022-08-27T01:53:05.287Z,99069.69
2022-08-27T01:55:36.016Z,99069.00
2022-08-27T01:58:06.078Z,99065.59
2022-08-27T02:00:39.060Z,99068.84
2022-08-27T02:03:09.017Z,99069.69
2022-08-27T02:05:42.267Z,99064.50
2022-08-27T02:08:16.155Z,99066.19
2022-08-27T02:10:48.453Z,99071.38
2022-08-27T02:13:18.366Z,99071.53
2022-08-27T02:15:47.228Z,99076.13
2022-08-27T02:18:17.242Z,99074.69
2022-08-27T02:20:47.736Z,99076.63
2022-08-27T02:23:18.573Z,99078.63
2022-08-27T02:25:48.912Z,99079.66
2022-08-27T02:28:17.616Z,99071.13
2022-08-27T02:30:46.413Z,99066.78
2022-08-27T02:33:15.619Z,99070.84
2022-08-27T02:35:44.581Z,99066.41
2022-08-27T02:38:14.291Z,99077.38
2022-08-27T02:40:43.556Z,99068.66
2022-08-27T02:43:15.934Z,99062.47
2022-08-27T02:45:52.536Z,99063.31
2022-08-27T02:48:21.267Z,99059.06
2022-08-27T02:50:49.981Z,99059.81
2022-08-27T02:53:19.868Z,99063.16
2022-08-27T02:55:49.658Z,99063.16
2022-08-27T02:58:19.927Z,99068.25
2022-08-27T03:00:49.741Z,99068.19
2022-08-27T03:03:18.882Z,99066.50
2022-08-27T03:05:48.719Z,99061.31
2022-08-27T03:08:18.319Z,99061.31
2022-08-27T03:10:47.139Z,99060.31
2022-08-27T03:13:15.863Z,99072.38
2022-08-27T03:15:47.043Z,99075.03
2022-08-27T03:18:22.053Z,99077.81
2022-08-27T03:20:53.243Z,99073.63
2022-08-27T03:23:25.128Z,99069.34
2022-08-27T03:25:55.761Z,99073.84
2022-08-27T03:28:26.412Z,99072.34
2022-08-27T03:31:01.711Z,99071.00
2022-08-27T03:33:32.228Z,99066.13
2022-08-27T03:36:01.670Z,99068.03
2022-08-27T03:38:30.440Z,99063.22
2022-08-27T03:40:59.101Z,99068.75
2022-08-27T03:43:27.842Z,99067.22
2022-08-27T03:46:00.885Z,99070.66
2022-08-27T03:48:33.182Z,99063.88
2022-08-27T03:51:07.051Z,99067.22
2022-08-27T03:53:36.851Z,99073.34
2022-08-27T03:56:06.674Z,99066.56
2022-08-27T03:58:36.689Z,99074.44
2022-08-27T04:01:09.852Z,99068.44
2022-08-27T04:03:38.847Z,99071.03
2022-08-27T04:06:08.108Z,99054.88
2022-08-27T04:08:37.639Z,99062.66
2022-08-27T04:11:08.159Z,99075.06
2022-08-27T04:13:36.966Z,99066.50
2022-08-27T04:16:09.075Z,99071.69
2022-08-27T04:18:37.849Z,99073.38
2022-08-27T04:21:10.040Z,99065.44
2022-08-27T04:23:39.395Z,99067.09
2022-08-27T04:26:09.817Z,99066.34
2022-08-27T04:28:39.183Z,99059.50
2022-08-27T04:31:16.697Z,99069.88
2022-08-27T04:33:50.787Z,99065.59
2022-08-27T04:36:21.493Z,99069.03
2022-08-27T04:38:50.193Z,99070.53
2022-08-27T04:41:22.564Z,99072.28
2022-08-27T04:43:53.426Z,99076.56
2022-08-27T04:46:26.583Z,99082.59
2022-08-27T04:48:57.912Z,99082.41
2022-08-27T04:51:27.512Z,99078.78
2022-08-27T04:53:56.702Z,99089.16
2022-08-27T04:56:30.838Z,99087.16
2022-08-27T04:58:59.693Z,99086.16
2022-08-27T05:01:30.651Z,99078.94
2022-08-27T05:04:00.111Z,99080.50
2022-08-27T05:06:29.502Z,99071.63
2022-08-27T05:08:58.229Z,99076.31
2022-08-27T05:11:32.552Z,99082.06
2022-08-27T05:14:02.968Z,99087.03
2022-08-27T05:16:33.821Z,99085.94
2022-08-27T05:19:02.414Z,99088.97
2022-08-27T05:21:36.103Z,99075.22
2022-08-27T05:24:07.673Z,99079.91
2022-08-27T05:26:38.361Z,99086.47
2022-08-27T05:29:07.301Z,99075.72
2022-08-27T05:31:38.158Z,99082.94
2022-08-27T05:34:10.241Z,99091.22
2022-08-27T05:36:47.807Z,99086.78
2022-08-27T05:39:18.512Z,99093.66
2022-08-27T05:41:47.158Z,99083.09
2022-08-27T05:44:40.735Z,99090.72
2022-08-27T05:47:08.323Z,99088.53
2022-08-27T05:49:38.109Z,99085.44
2022-08-27T05:52:09.146Z,99095.16
2022-08-27T05:54:38.294Z,99086.44
2022-08-27T05:57:07.069Z,99083.31
2022-08-27T05:59:45.569Z,99080.75
2022-08-27T06:02:15.686Z,99081.91
2022-08-27T06:04:44.361Z,99082.09
2022-08-27T06:07:13.341Z,99089.47
2022-08-27T06:09:43.144Z,99090.31
2022-08-27T06:12:12.045Z,99092.81
2022-08-27T06:14:40.806Z,99104.22
2022-08-27T06:17:09.413Z,99097.38
2022-08-27T06:19:39.675Z,99102.91
2022-08-27T06:22:10.294Z,99111.47
2022-08-27T06:24:41.640Z,99115.56
2022-08-27T06:27:15.150Z,99119.50
2022-08-27T06:29:44.942Z,99129.03
2022-08-27T06:32:15.204Z,99132.47
2022-08-27T06:34:45.323Z,99136.31
2022-08-27T06:37:14.302Z,99143.75
2022-08-27T06:39:43.030Z,99150.34
2022-08-27T06:42:13.470Z,99170.16
2022-08-27T06:44:42.562Z,99198.09
2022-08-27T06:47:11.479Z,99189.56
2022-08-27T06:49:41.601Z,99179.97
2022-08-27T06:52:16.916Z,99179.75
2022-08-27T06:54:46.239Z,99175.97
2022-08-27T06:57:15.000Z,99164.53
2022-08-27T06:59:44.675Z,99160.72
2022-08-27T07:02:13.675Z,99151.75
2022-08-27T07:04:42.457Z,99153.06
2022-08-27T07:07:14.182Z,99157.69
2022-08-27T07:09:58.500Z,99158.78
2022-08-27T07:12:30.732Z,99155.50
2022-08-27T07:14:59.792Z,99155.19
2022-08-27T07:17:28.555Z,99152.09
2022-08-27T07:19:58.000Z,99149.72
2022-08-27T07:22:26.759Z,99139.59
2022-08-27T07:24:55.513Z,99151.34
2022-08-27T07:27:25.781Z,99147.59
2022-08-27T07:29:54.603Z,99135.28
2022-08-27T07:32:23.791Z,99135.28
2022-08-27T07:34:59.413Z,99137.16
2022-08-27T07:37:34.988Z,99134.00
2022-08-27T07:40:07.218Z,99130.66
2022-08-27T07:42:47.433Z,99139.22
2022-08-27T07:45:16.235Z,99127.94
2022-08-27T07:47:45.291Z,99124.59
2022-08-27T07:50:15.511Z,99115.09
2022-08-27T07:52:45.235Z,99121.88
2022-08-27T07:55:15.432Z,99124.22
2022-08-27T07:57:48.222Z,99122.75
2022-08-27T08:00:17.289Z,99142.63
2022-08-27T08:02:47.692Z,99143.28
2022-08-27T08:05:17.032Z,99134.09
2022-08-27T08:07:45.804Z,99141.91
2022-08-27T08:10:14.910Z,99137.00
2022-08-27T08:12:45.128Z,99134.69
2022-08-27T08:15:15.517Z,99135.75
2022-08-27T08:17:44.693Z,99138.44
2022-08-27T08:20:30.895Z,99137.69
2022-08-27T08:23:03.297Z,99142.31
2022-08-27T08:25:34.545Z,99140.16
2022-08-27T08:28:09.014Z,99141.69
2022-08-27T08:30:38.073Z,99135.31
2022-08-27T08:33:06.894Z,99143.13
2022-08-27T08:35:40.638Z,99137.44
2022-08-27T08:38:10.788Z,99130.97
2022-08-27T08:40:43.682Z,99128.63
2022-08-27T08:43:27.112Z,99132.06
2022-08-27T08:45:57.391Z,99132.19
2022-08-27T08:48:29.929Z,99133.97
2022-08-27T08:51:04.954Z,99128.97
2022-08-27T08:53:42.584Z,99128.19
2022-08-27T08:56:15.525Z,99124.22
2022-08-27T08:58:51.674Z,99125.31
2022-08-27T09:01:22.970Z,99131.75
2022-08-27T09:03:56.001Z,99133.13
2022-08-27T09:06:34.824Z,99130.03
2022-08-27T09:09:14.993Z,99117.94
2022-08-27T09:11:54.905Z,99126.91
2022-08-27T09:14:35.647Z,99118.16
2022-08-27T09:17:10.885Z,99122.31
2022-08-27T09:19:41.630Z,99115.59
2022-08-27T09:22:21.368Z,99111.78
2022-08-27T09:25:01.956Z,99108.88
2022-08-27T09:27:31.153Z,99107.25
2022-08-27T09:30:09.284Z,99100.31
2022-08-27T09:32:39.379Z,99094.94
2022-08-27T09:35:13.708Z,99095.66
2022-08-27T09:37:45.826Z,99096.41
2022-08-27T09:40:23.194Z,99102.63
2022-08-27T09:42:55.045Z,99116.81
2022-08-27T09:45:28.857Z,99094.41
2022-08-27T09:48:08.741Z,99099.41
2022-08-27T09:50:43.758Z,99099.03
2022-08-27T09:53:21.295Z,99102.75
2022-08-27T09:55:54.803Z,99103.25
2022-08-27T09:58:29.365Z,99104.91
2022-08-27T10:01:06.502Z,99103.25
2022-08-27T10:03:35.601Z,99112.09
2022-08-27T10:06:04.285Z,99105.16
2022-08-27T10:08:42.518Z,99108.94
2022-08-27T10:11:17.406Z,99105.69
2022-08-27T10:13:54.170Z,99100.97
2022-08-27T10:16:47.700Z,99093.09
2022-08-27T10:19:31.716Z,99102.03
2022-08-27T10:22:09.736Z,99096.25
2022-08-27T10:24:52.667Z,99100.28
2022-08-27T10:27:29.579Z,99092.97
2022-08-27T10:30:05.414Z,99095.84
2022-08-27T10:32:52.775Z,99085.09
2022-08-27T10:35:26.787Z,99087.94
2022-08-27T10:38:09.091Z,99084.66
2022-08-27T10:40:44.224Z,99091.03
2022-08-27T10:43:31.844Z,99091.47
2022-08-27T10:46:12.864Z,99093.84
2022-08-27T10:48:53.857Z,99086.75
2022-08-27T10:51:29.896Z,99083.31
2022-08-27T10:54:06.117Z,99089.97
2022-08-27T10:56:41.397Z,99095.22
2022-08-27T10:59:20.073Z,99093.03
2022-08-27T11:01:54.017Z,99096.59
2022-08-27T11:04:28.056Z,99090.53
2022-08-27T11:07:00.505Z,99104.28
2022-08-27T11:09:38.345Z,99098.50
2022-08-27T11:12:15.335Z,99084.81
2022-08-27T11:14:52.706Z,99089.00
2022-08-27T11:17:32.447Z,99091.19
2022-08-27T11:20:08.699Z,99081.88
2022-08-27T11:22:41.978Z,99078.63
2022-08-27T11:25:29.216Z,99080.44
2022-08-27T11:27:59.406Z,99077.22
2022-08-27T11:30:32.796Z,99079.72
2022-08-27T11:33:11.036Z,99078.59
2022-08-27T11:36:04.234Z,99077.47
2022-08-27T11:38:46.045Z,99075.84
2022-08-27T11:41:45.016Z,99079.22
2022-08-27T11:44:16.638Z,99070.88
2022-08-27T11:46:48.818Z,99070.81
2022-08-27T11:49:30.242Z,99070.06
2022-08-27T11:52:04.005Z,99064.53
2022-08-27T11:54:46.141Z,99062.63
2022-08-27T11:57:31.669Z,99068.81
2022-08-27T12:00:13.024Z,99063.63
2022-08-27T12:02:42.225Z,99060.59
2022-08-27T12:05:11.633Z,99060.44
2022-08-27T12:07:52.418Z,99053.84
2022-08-27T12:10:33.417Z,99052.00
2022-08-27T12:13:18.672Z,99049.41
2022-08-27T12:15:59.235Z,99047.47
2022-08-27T12:18:47.137Z,99050.44
2022-08-27T12:21:27.161Z,99043.50
2022-08-27T12:24:18.576Z,99047.38
2022-08-27T12:26:57.597Z,99039.50
2022-08-27T12:29:29.723Z,99045.34
2022-08-27T12:32:06.704Z,99034.25
2022-08-27T12:34:48.797Z,99036.44
2022-08-27T12:37:31.667Z,99033.75
2022-08-27T12:40:07.323Z,99029.13
2022-08-27T12:42:36.828Z,99027.47
2022-08-27T12:45:06.329Z,99031.19
2022-08-27T12:47:51.053Z,99033.59
2022-08-27T12:50:26.901Z,99033.00
2022-08-27T12:53:21.360Z,99028.22
2022-08-27T12:56:01.556Z,99021.66
2022-08-27T12:58:43.202Z,99030.00
2022-08-27T13:01:26.487Z,99018.09
2022-08-27T13:03:57.641Z,99023.75
2022-08-27T13:06:30.859Z,99020.44
2022-08-27T13:09:01.992Z,99016.41
2022-08-27T13:11:36.119Z,99022.38
2022-08-27T13:14:11.190Z,99014.72
2022-08-27T13:16:46.023Z,99009.25
2022-08-27T13:19:23.143Z,99011.31
2022-08-27T13:21:52.879Z,99019.63
2022-08-27T13:24:28.375Z,99014.19
2022-08-27T13:26:59.022Z,99013.13
2022-08-27T13:29:28.838Z,99005.56
2022-08-27T13:31:58.203Z,99017.78
2022-08-27T13:34:29.542Z,99006.78
2022-08-27T13:37:02.917Z,99015.09
2022-08-27T13:39:32.021Z,99016.72
2022-08-27T13:42:02.330Z,99006.13
2022-08-27T13:44:35.058Z,99008.75
2022-08-27T13:47:07.583Z,99002.19
2022-08-27T13:49:40.002Z,99002.81
2022-08-27T13:52:18.831Z,98998.34
2022-08-27T13:54:49.643Z,99007.38
2022-08-27T13:57:30.738Z,98998.03
2022-08-27T14:00:12.318Z,99000.94
2022-08-27T14:02:42.609Z,98999.19
2022-08-27T14:05:32.401Z,98999.84
2022-08-27T14:08:03.570Z,98996.69
2022-08-27T14:10:36.356Z,98999.84
2022-08-27T14:13:09.739Z,99003.13
2022-08-27T14:15:41.249Z,98992.75
2022-08-27T14:18:36.801Z,98999.94
2022-08-27T14:21:11.353Z,98997.28
2022-08-27T14:23:40.463Z,98998.72
2022-08-27T14:26:10.103Z,99009.66
2022-08-27T14:28:40.413Z,99009.97
2022-08-27T14:31:09.839Z,99010.56
2022-08-27T14:33:38.885Z,99011.97
2022-08-27T14:36:09.522Z,99006.19
2022-08-27T14:38:40.931Z,99006.19
2022-08-27T14:41:11.232Z,99009.66
2022-08-27T14:43:41.805Z,98999.50
2022-08-27T14:46:24.266Z,99007.53
2022-08-27T14:48:55.863Z,99008.00
2022-08-27T14:51:28.163Z,99008.53
2022-08-27T14:53:58.186Z,99011.69
2022-08-27T14:56:27.294Z,99010.69
2022-08-27T14:58:57.245Z,99010.03
2022-08-27T15:01:27.577Z,99005.75
2022-08-27T15:04:22.519Z,99013.81
2022-08-27T15:06:57.247Z,99010.31
2022-08-27T15:09:26.741Z,99014.94
2022-08-27T15:11:58.138Z,99007.63
2022-08-27T15:14:31.788Z,99011.56
2022-08-27T15:17:01.217Z,99012.31
2022-08-27T15:19:31.169Z,99007.72
2022-08-27T15:22:06.628Z,99014.88
2022-08-27T15:24:41.854Z,99006.00
2022-08-27T15:27:10.608Z,99007.41
2022-08-27T15:29:41.058Z,99008.81
2022-08-27T15:32:11.990Z,99012.72
2022-08-27T15:34:40.648Z,99008.25
2022-08-27T15:37:09.638Z,99006.34
2022-08-27T15:39:38.088Z,99010.94
2022-08-27T15:42:08.530Z,99013.75
2022-08-27T15:44:45.058Z,99013.78
2022-08-27T15:47:17.666Z,99011.31
2022-08-27T15:49:48.614Z,99016.06
2022-08-27T15:52:21.288Z,99008.44
2022-08-27T15:54:51.751Z,99000.81
2022-08-27T15:57:21.791Z,98995.84
2022-08-27T15:59:51.851Z,98998.38
2022-08-27T16:02:23.543Z,99000.84
2022-08-27T16:04:52.621Z,98998.06
2022-08-27T16:07:21.860Z,98995.81
2022-08-27T16:09:50.569Z,98999.16
2022-08-27T16:12:27.066Z,99001.50
2022-08-27T16:14:58.101Z,99010.88
2022-08-27T16:17:27.115Z,99007.03
2022-08-27T16:19:58.841Z,99013.75
2022-08-27T16:22:28.551Z,99018.16
2022-08-27T16:24:57.766Z,99018.38
2022-08-27T16:27:26.091Z,99018.50
2022-08-27T16:29:54.632Z,99016.75
2022-08-27T16:32:25.863Z,99024.63
2022-08-27T16:34:55.803Z,99029.00
2022-08-27T16:37:25.180Z,99026.13
2022-08-27T16:39:54.449Z,99018.09
2022-08-27T16:42:23.445Z,99021.94
2022-08-27T16:44:52.131Z,99023.41
2022-08-27T16:47:20.720Z,99017.16
2022-08-27T16:50:00.447Z,99015.16
2022-08-27T16:52:29.660Z,99019.00
2022-08-27T16:55:00.323Z,99022.97
2022-08-27T16:57:29.083Z,99016.69
2022-08-27T16:59:58.135Z,99030.97
2022-08-27T17:02:30.294Z,99042.56
2022-08-27T17:05:23.774Z,99032.91
2022-08-27T17:07:51.125Z,99033.16
2022-08-27T17:10:21.563Z,99039.59
2022-08-27T17:12:50.134Z,99038.19
2022-08-27T17:15:19.137Z,99053.25
2022-08-27T17:17:47.824Z,99046.81
2022-08-27T17:20:17.865Z,99038.97
2022-08-27T17:22:46.495Z,99047.22
2022-08-27T17:25:15.440Z,99040.56
2022-08-27T17:27:44.176Z,99036.16
2022-08-27T17:30:13.554Z,99045.72
2022-08-27T17:32:45.235Z,99056.44
2022-08-27T17:35:15.705Z,99052.63
2022-08-27T17:37:45.890Z,99063.13
2022-08-27T17:40:14.530Z,99062.84
2022-08-27T17:42:43.221Z,99064.75
2022-08-27T17:45:12.520Z,99071.34
2022-08-27T17:47:40.907Z,99079.78
2022-08-27T17:50:10.041Z,99080.84
2022-08-27T17:52:40.209Z,99086.22
2022-08-27T17:55:10.923Z,99093.06
2022-08-27T17:57:41.158Z,99093.03
2022-08-27T18:00:12.191Z,99095.16
2022-08-27T18:02:44.411Z,99102.38
2022-08-27T18:05:14.093Z,99116.63
2022-08-27T18:07:43.572Z,99118.13
2022-08-27T18:10:14.614Z,99130.97
2022-08-27T18:12:44.082Z,99133.56
2022-08-27T18:15:15.462Z,99138.91
2022-08-27T18:17:44.013Z,99131.88
2022-08-27T18:20:14.281Z,99136.28
2022-08-27T18:22:48.404Z,99147.16
2022-08-27T18:25:22.989Z,99150.28
2022-08-27T18:27:54.524Z,99143.97
2022-08-27T18:30:23.311Z,99145.59
2022-08-27T18:32:52.005Z,99151.56
2022-08-27T18:35:22.802Z,99162.47
2022-08-27T18:37:51.451Z,99156.53
2022-08-27T18:40:24.368Z,99159.25
2022-08-27T18:42:53.463Z,99161.13
2022-08-27T18:45:26.975Z,99172.44
2022-08-27T18:47:59.846Z,99170.75
2022-08-27T18:50:28.793Z,99165.75
2022-08-27T18:52:58.631Z,99171.41
2022-08-27T18:55:29.749Z,99164.75
2022-08-27T18:57:58.320Z,99177.53
2022-08-27T19:00:26.871Z,99172.50
2022-08-27T19:02:55.581Z,99170.22
2022-08-27T19:05:27.590Z,99159.34
2022-08-27T19:07:57.080Z,99159.75
2022-08-27T19:10:25.777Z,99162.81
2022-08-27T19:12:55.921Z,99162.06
2022-08-27T19:15:24.490Z,99159.13
2022-08-27T19:17:57.006Z,99162.72
2022-08-27T19:20:27.628Z,99161.34
2022-08-27T19:22:56.329Z,99155.72
2022-08-27T19:25:24.892Z,99154.16
2022-08-27T19:27:55.387Z,99157.09
2022-08-27T19:30:24.177Z,99164.41
2022-08-27T19:32:53.891Z,99157.91
2022-08-27T19:35:23.508Z,99156.66
2022-08-27T19:37:53.292Z,99157.06
2022-08-27T19:40:23.104Z,99157.78
2022-08-27T19:42:52.215Z,99162.66
2022-08-27T19:45:23.783Z,99159.72
2022-08-27T19:47:54.367Z,99162.81
2022-08-27T19:50:24.586Z,99160.63
2022-08-27T19:52:53.575Z,99150.81
2022-08-27T19:55:22.242Z,99159.56
2022-08-27T19:57:51.075Z,99159.84
2022-08-27T20:00:24.878Z,99154.22
2022-08-27T20:02:57.086Z,99152.94
2022-08-27T20:05:25.659Z,99149.56
2022-08-27T20:07:54.938Z,99148.28
2022-08-27T20:10:36.725Z,99153.44
2022-08-27T20:13:06.008Z,99158.25
2022-08-27T20:15:38.002Z,99146.16
2022-08-27T20:18:08.040Z,99156.78
2022-08-27T20:20:37.714Z,99153.44
2022-08-27T20:23:07.900Z,99147.56
2022-08-27T20:25:37.386Z,99144.41
2022-08-27T20:28:35.462Z,99144.81
2022-08-27T20:30:58.235Z,99144.47
2022-08-27T20:33:27.863Z,99150.25
2022-08-27T20:35:57.052Z,99150.63
2022-08-27T20:38:26.034Z,99153.44
2022-08-27T20:40:54.604Z,99146.72
2022-08-27T20:43:23.197Z,99151.19
2022-08-27T20:45:51.826Z,99145.06
2022-08-27T20:48:22.026Z,99148.53
2022-08-27T20:50:51.017Z,99153.81
2022-08-27T20:53:19.547Z,99157.38
2022-08-27T20:55:49.067Z,99157.53
2022-08-27T20:58:27.544Z,99152.50
2022-08-27T21:00:57.544Z,99156.06
2022-08-27T21:03:27.676Z,99159.59
2022-08-27T21:05:56.436Z,99159.78
2022-08-27T21:08:25.115Z,99153.72
2022-08-27T21:10:56.980Z,99165.94
2022-08-27T21:13:27.653Z,99170.56
2022-08-27T21:15:56.601Z,99173.22
2022-08-27T21:18:29.823Z,99178.66
2022-08-27T21:21:00.654Z,99184.13
2022-08-27T21:23:29.775Z,99185.22
2022-08-27T21:26:03.040Z,99179.28
2022-08-27T21:28:32.138Z,99182.06
2022-08-27T21:31:00.717Z,99183.91
2022-08-27T21:33:29.397Z,99187.66
2022-08-27T21:35:57.940Z,99179.09
2022-08-27T21:38:28.334Z,99175.53
2022-08-27T21:40:57.584Z,99180.97
2022-08-27T21:43:26.204Z,99178.88
2022-08-27T21:45:55.874Z,99180.91
2022-08-27T21:48:25.044Z,99180.00
2022-08-27T21:50:54.274Z,99183.50
2022-08-27T21:53:23.484Z,99182.69
2022-08-27T21:55:55.306Z,99182.03
2022-08-27T21:58:26.654Z,99180.16
2022-08-27T22:00:55.851Z,99183.50
2022-08-27T22:03:25.405Z,99180.34
2022-08-27T22:05:54.278Z,99170.97
2022-08-27T22:08:23.561Z,99173.81
2022-08-27T22:10:58.017Z,99178.28
2022-08-27T22:13:27.346Z,99180.31
2022-08-27T22:15:56.156Z,99177.34
2022-08-27T22:18:25.348Z,99181.78
2022-08-27T22:20:54.045Z,99164.72
2022-08-27T22:23:23.276Z,99163.78
2022-08-27T22:25:53.636Z,99155.25
2022-08-27T22:28:22.918Z,99159.63
2022-08-27T22:30:51.564Z,99164.31
2022-08-27T22:33:20.205Z,99155.31
2022-08-27T22:35:49.374Z,99153.59
2022-08-27T22:38:17.974Z,99148.78
2022-08-27T22:40:46.544Z,99154.16
2022-08-27T22:43:18.026Z,99156.91
2022-08-27T22:45:47.165Z,99167.56
2022-08-27T22:48:15.667Z,99171.94
2022-08-27T22:50:44.474Z,99172.88
2022-08-27T22:53:13.356Z,99173.78
2022-08-27T22:55:43.219Z,99170.28
2022-08-27T22:58:13.874Z,99175.47
2022-08-27T23:00:44.411Z,99170.44
2022-08-27T23:03:21.328Z,99172.19
2022-08-27T23:05:50.033Z,99178.41
2022-08-27T23:08:18.713Z,99184.34
2022-08-27T23:10:47.470Z,99189.53
2022-08-27T23:13:16.172Z,99192.16
2022-08-27T23:15:46.260Z,99191.41
2022-08-27T23:18:15.576Z,99197.44
2022-08-27T23:20:44.139Z,99200.97
2022-08-27T23:23:12.719Z,99214.78
2022-08-27T23:25:50.398Z,99222.78
2022-08-27T23:28:19.694Z,99268.03
2022-08-27T23:30:50.546Z,99300.38
2022-08-27T23:33:20.218Z,99297.94
2022-08-27T23:35:51.946Z,99307.28
2022-08-27T23:38:22.415Z,99322.78
2022-08-27T23:40:52.411Z,99314.59
2022-08-27T23:43:22.855Z,99275.16
2022-08-27T23:45:53.737Z,99286.00
2022-08-27T23:48:34.508Z,99276.78
2022-08-27T23:51:03.477Z,99275.69
2022-08-27T23:53:32.090Z,99251.13
2022-08-27T23:56:00.663Z,99258.66
2022-08-27T23:58:29.420Z,99250.63
